sensor_id;sensor_type;location;lat;lon;timestamp;P1;durP1;ratioP1;P2;durP2;ratioP2
5904;SDS011;2978;42.012;24.880;2022-11-12T00:00:49;4.57;;;3.80;;
5904;SDS011;2978;42.012;24.880;2022-11-12T00:03:15;4.97;;;3.70;;
5904;SDS011;2978;42.012;24.880;2022-11-12T00:05:41;8.53;;;4.50;;
5904;SDS011;2978;42.012;24.880;2022-11-12T00:08:08;4.70;;;3.97;;
5904;SDS011;2978;42.012;24.880;2022-11-12T00:10:34;6.00;;;3.57;;
5904;SDS011;2978;42.012;24.880;2022-11-12T00:12:59;4.70;;;4.10;;
5904;SDS011;2978;42.012;24.880;2022-11-12T00:15:25;6.27;;;4.80;;
5904;SDS011;2978;42.012;24.880;2022-11-12T00:17:50;4.43;;;4.03;;
5904;SDS011;2978;42.012;24.880;2022-11-12T00:20:16;4.17;;;3.77;;
5904;SDS011;2978;42.012;24.880;2022-11-12T00:22:42;5.03;;;4.00;;
5904;SDS011;2978;42.012;24.880;2022-11-12T00:25:07;4.73;;;3.70;;
5904;SDS011;2978;42.012;24.880;2022-11-12T00:27:33;5.43;;;3.73;;
5904;SDS011;2978;42.012;24.880;2022-11-12T00:29:59;6.93;;;5.00;;
5904;SDS011;2978;42.012;24.880;2022-11-12T00:32:24;7.37;;;4.57;;
5904;SDS011;2978;42.012;24.880;2022-11-12T00:34:50;5.00;;;4.13;;
5904;SDS011;2978;42.012;24.880;2022-11-12T00:37:15;4.30;;;3.60;;
5904;SDS011;2978;42.012;24.880;2022-11-12T00:39:42;4.80;;;3.77;;
5904;SDS011;2978;42.012;24.880;2022-11-12T00:42:08;6.33;;;4.30;;
5904;SDS011;2978;42.012;24.880;2022-11-12T00:44:33;5.47;;;4.43;;
5904;SDS011;2978;42.012;24.880;2022-11-12T00:46:59;4.50;;;4.10;;
5904;SDS011;2978;42.012;24.880;2022-11-12T00:49:24;5.33;;;4.20;;
5904;SDS011;2978;42.012;24.880;2022-11-12T00:51:50;5.07;;;4.10;;
5904;SDS011;2978;42.012;24.880;2022-11-12T00:54:16;5.63;;;4.40;;
5904;SDS011;2978;42.012;24.880;2022-11-12T00:56:41;5.10;;;4.60;;
5904;SDS011;2978;42.012;24.880;2022-11-12T00:59:07;4.63;;;3.90;;
5904;SDS011;2978;42.012;24.880;2022-11-12T01:01:32;5.10;;;3.67;;
5904;SDS011;2978;42.012;24.880;2022-11-12T01:03:58;7.07;;;4.50;;
5904;SDS011;2978;42.012;24.880;2022-11-12T01:06:24;5.47;;;4.23;;
5904;SDS011;2978;42.012;24.880;2022-11-12T01:08:50;4.33;;;3.93;;
5904;SDS011;2978;42.012;24.880;2022-11-12T01:11:17;4.80;;;4.10;;
5904;SDS011;2978;42.012;24.880;2022-11-12T01:14:00;5.70;;;4.40;;
5904;SDS011;2978;42.012;24.880;2022-11-12T01:16:28;4.63;;;4.00;;
5904;SDS011;2978;42.012;24.880;2022-11-12T01:18:59;8.40;;;4.27;;
5904;SDS011;2978;42.012;24.880;2022-11-12T01:21:27;4.10;;;3.70;;
5904;SDS011;2978;42.012;24.880;2022-11-12T01:23:55;4.63;;;4.00;;
5904;SDS011;2978;42.012;24.880;2022-11-12T01:26:22;4.33;;;3.93;;
5904;SDS011;2978;42.012;24.880;2022-11-12T01:28:52;6.70;;;4.40;;
5904;SDS011;2978;42.012;24.880;2022-11-12T01:31:19;6.63;;;4.30;;
5904;SDS011;2978;42.012;24.880;2022-11-12T01:33:49;5.27;;;4.43;;
5904;SDS011;2978;42.012;24.880;2022-11-12T01:36:18;4.90;;;3.83;;
5904;SDS011;2978;42.012;24.880;2022-11-12T01:38:45;7.00;;;5.23;;
5904;SDS011;2978;42.012;24.880;2022-11-12T01:41:12;5.23;;;3.87;;
5904;SDS011;2978;42.012;24.880;2022-11-12T01:47:01;5.07;;;4.10;;
5904;SDS011;2978;42.012;24.880;2022-11-12T01:49:30;4.83;;;4.33;;
5904;SDS011;2978;42.012;24.880;2022-11-12T01:52:03;6.53;;;4.70;;
5904;SDS011;2978;42.012;24.880;2022-11-12T01:54:40;7.30;;;5.37;;
5904;SDS011;2978;42.012;24.880;2022-11-12T01:57:08;9.40;;;5.40;;
5904;SDS011;2978;42.012;24.880;2022-11-12T01:59:37;6.47;;;4.87;;
5904;SDS011;2978;42.012;24.880;2022-11-12T02:02:08;4.97;;;4.30;;
5904;SDS011;2978;42.012;24.880;2022-11-12T02:04:35;4.70;;;3.90;;
5904;SDS011;2978;42.012;24.880;2022-11-12T02:07:02;5.30;;;4.10;;
5904;SDS011;2978;42.012;24.880;2022-11-12T02:09:30;4.83;;;4.00;;
5904;SDS011;2978;42.012;24.880;2022-11-12T02:11:57;4.70;;;4.20;;
5904;SDS011;2978;42.012;24.880;2022-11-12T02:14:24;7.87;;;4.80;;
5904;SDS011;2978;42.012;24.880;2022-11-12T02:16:49;4.70;;;4.20;;
5904;SDS011;2978;42.012;24.880;2022-11-12T02:19:15;5.07;;;3.97;;
5904;SDS011;2978;42.012;24.880;2022-11-12T02:21:41;4.30;;;3.90;;
5904;SDS011;2978;42.012;24.880;2022-11-12T02:26:42;4.47;;;4.07;;
5904;SDS011;2978;42.012;24.880;2022-11-12T02:29:11;6.13;;;4.00;;
5904;SDS011;2978;42.012;24.880;2022-11-12T02:31:36;6.53;;;4.23;;
5904;SDS011;2978;42.012;24.880;2022-11-12T02:34:02;5.73;;;4.23;;
5904;SDS011;2978;42.012;24.880;2022-11-12T02:36:27;5.07;;;4.30;;
5904;SDS011;2978;42.012;24.880;2022-11-12T02:38:53;4.17;;;3.57;;
5904;SDS011;2978;42.012;24.880;2022-11-12T02:41:19;4.80;;;4.40;;
5904;SDS011;2978;42.012;24.880;2022-11-12T02:43:45;4.73;;;4.07;;
5904;SDS011;2978;42.012;24.880;2022-11-12T02:46:10;4.97;;;4.03;;
5904;SDS011;2978;42.012;24.880;2022-11-12T02:48:37;5.13;;;4.30;;
5904;SDS011;2978;42.012;24.880;2022-11-12T02:51:02;6.93;;;4.67;;
5904;SDS011;2978;42.012;24.880;2022-11-12T02:53:28;8.40;;;4.80;;
5904;SDS011;2978;42.012;24.880;2022-11-12T02:55:53;6.00;;;4.70;;
5904;SDS011;2978;42.012;24.880;2022-11-12T02:58:19;6.17;;;4.90;;
5904;SDS011;2978;42.012;24.880;2022-11-12T03:00:47;10.13;;;5.07;;
5904;SDS011;2978;42.012;24.880;2022-11-12T03:03:13;7.93;;;4.90;;
5904;SDS011;2978;42.012;24.880;2022-11-12T03:05:38;5.50;;;4.90;;
5904;SDS011;2978;42.012;24.880;2022-11-12T03:08:05;6.37;;;4.63;;
5904;SDS011;2978;42.012;24.880;2022-11-12T03:10:32;6.10;;;4.80;;
5904;SDS011;2978;42.012;24.880;2022-11-12T03:12:59;5.70;;;5.20;;
5904;SDS011;2978;42.012;24.880;2022-11-12T03:15:26;7.50;;;4.90;;
5904;SDS011;2978;42.012;24.880;2022-11-12T03:17:52;7.30;;;5.00;;
5904;SDS011;2978;42.012;24.880;2022-11-12T03:20:18;5.43;;;4.23;;
5904;SDS011;2978;42.012;24.880;2022-11-12T03:22:53;6.30;;;5.40;;
5904;SDS011;2978;42.012;24.880;2022-11-12T03:25:24;7.37;;;5.60;;
5904;SDS011;2978;42.012;24.880;2022-11-12T03:27:57;6.40;;;5.50;;
5904;SDS011;2978;42.012;24.880;2022-11-12T03:30:27;6.13;;;4.93;;
5904;SDS011;2978;42.012;24.880;2022-11-12T03:32:53;5.30;;;4.70;;
5904;SDS011;2978;42.012;24.880;2022-11-12T03:35:19;5.40;;;4.67;;
5904;SDS011;2978;42.012;24.880;2022-11-12T03:37:45;5.80;;;4.87;;
5904;SDS011;2978;42.012;24.880;2022-11-12T03:40:10;9.50;;;4.93;;
5904;SDS011;2978;42.012;24.880;2022-11-12T03:42:36;6.77;;;5.00;;
5904;SDS011;2978;42.012;24.880;2022-11-12T03:45:01;6.23;;;4.73;;
5904;SDS011;2978;42.012;24.880;2022-11-12T03:47:27;6.47;;;4.80;;
5904;SDS011;2978;42.012;24.880;2022-11-12T03:49:52;5.20;;;4.70;;
5904;SDS011;2978;42.012;24.880;2022-11-12T03:52:18;6.70;;;5.17;;
5904;SDS011;2978;42.012;24.880;2022-11-12T03:54:43;6.37;;;4.53;;
5904;SDS011;2978;42.012;24.880;2022-11-12T03:57:08;6.10;;;4.87;;
5904;SDS011;2978;42.012;24.880;2022-11-12T03:59:34;5.37;;;4.87;;
5904;SDS011;2978;42.012;24.880;2022-11-12T04:01:59;5.87;;;4.93;;
5904;SDS011;2978;42.012;24.880;2022-11-12T04:04:25;6.07;;;5.47;;
5904;SDS011;2978;42.012;24.880;2022-11-12T04:07:10;5.77;;;5.17;;
5904;SDS011;2978;42.012;24.880;2022-11-12T04:09:54;6.20;;;5.10;;
5904;SDS011;2978;42.012;24.880;2022-11-12T04:12:20;7.77;;;5.10;;
5904;SDS011;2978;42.012;24.880;2022-11-12T04:15:04;8.90;;;5.67;;
5904;SDS011;2978;42.012;24.880;2022-11-12T04:17:30;6.37;;;5.13;;
5904;SDS011;2978;42.012;24.880;2022-11-12T04:20:14;6.50;;;5.33;;
5904;SDS011;2978;42.012;24.880;2022-11-12T04:22:57;8.37;;;5.57;;
5904;SDS011;2978;42.012;24.880;2022-11-12T04:25:23;6.40;;;5.43;;
5904;SDS011;2978;42.012;24.880;2022-11-12T04:28:09;7.90;;;5.60;;
5904;SDS011;2978;42.012;24.880;2022-11-12T04:30:34;7.03;;;5.10;;
5904;SDS011;2978;42.012;24.880;2022-11-12T04:32:59;7.37;;;5.80;;
5904;SDS011;2978;42.012;24.880;2022-11-12T04:35:25;11.10;;;6.93;;
5904;SDS011;2978;42.012;24.880;2022-11-12T04:37:51;8.67;;;7.17;;
5904;SDS011;2978;42.012;24.880;2022-11-12T04:40:21;8.77;;;6.90;;
5904;SDS011;2978;42.012;24.880;2022-11-12T04:43:17;11.50;;;7.67;;
5904;SDS011;2978;42.012;24.880;2022-11-12T04:46:02;8.97;;;7.70;;
5904;SDS011;2978;42.012;24.880;2022-11-12T04:48:28;7.83;;;7.00;;
5904;SDS011;2978;42.012;24.880;2022-11-12T04:50:58;9.73;;;7.90;;
5904;SDS011;2978;42.012;24.880;2022-11-12T04:53:25;9.30;;;7.47;;
5904;SDS011;2978;42.012;24.880;2022-11-12T04:55:53;13.20;;;8.63;;
5904;SDS011;2978;42.012;24.880;2022-11-12T04:58:21;12.63;;;9.57;;
5904;SDS011;2978;42.012;24.880;2022-11-12T05:00:47;11.70;;;8.57;;
5904;SDS011;2978;42.012;24.880;2022-11-12T05:03:14;10.73;;;8.57;;
5904;SDS011;2978;42.012;24.880;2022-11-12T05:05:39;10.90;;;8.13;;
5904;SDS011;2978;42.012;24.880;2022-11-12T05:08:05;7.70;;;6.57;;
5904;SDS011;2978;42.012;24.880;2022-11-12T05:10:30;9.17;;;6.17;;
5904;SDS011;2978;42.012;24.880;2022-11-12T05:12:56;7.10;;;6.40;;
5904;SDS011;2978;42.012;24.880;2022-11-12T05:15:22;7.73;;;6.67;;
5904;SDS011;2978;42.012;24.880;2022-11-12T05:17:48;7.60;;;6.47;;
5904;SDS011;2978;42.012;24.880;2022-11-12T05:20:13;8.27;;;6.80;;
5904;SDS011;2978;42.012;24.880;2022-11-12T05:22:39;9.30;;;8.30;;
5904;SDS011;2978;42.012;24.880;2022-11-12T05:25:06;13.00;;;9.00;;
5904;SDS011;2978;42.012;24.880;2022-11-12T05:27:32;12.27;;;9.27;;
5904;SDS011;2978;42.012;24.880;2022-11-12T05:29:58;11.03;;;8.20;;
5904;SDS011;2978;42.012;24.880;2022-11-12T05:32:23;13.23;;;7.67;;
5904;SDS011;2978;42.012;24.880;2022-11-12T05:34:49;10.23;;;8.30;;
5904;SDS011;2978;42.012;24.880;2022-11-12T05:37:15;13.20;;;9.53;;
5904;SDS011;2978;42.012;24.880;2022-11-12T05:39:40;16.53;;;9.50;;
5904;SDS011;2978;42.012;24.880;2022-11-12T05:42:06;15.83;;;9.83;;
5904;SDS011;2978;42.012;24.880;2022-11-12T05:44:32;16.20;;;8.47;;
5904;SDS011;2978;42.012;24.880;2022-11-12T05:46:57;18.70;;;8.80;;
5904;SDS011;2978;42.012;24.880;2022-11-12T05:49:23;12.77;;;8.73;;
5904;SDS011;2978;42.012;24.880;2022-11-12T05:51:49;6.60;;;5.90;;
5904;SDS011;2978;42.012;24.880;2022-11-12T05:54:15;8.80;;;5.20;;
5904;SDS011;2978;42.012;24.880;2022-11-12T05:56:41;8.20;;;7.07;;
5904;SDS011;2978;42.012;24.880;2022-11-12T05:59:08;6.27;;;5.67;;
5904;SDS011;2978;42.012;24.880;2022-11-12T06:01:35;6.43;;;5.60;;
5904;SDS011;2978;42.012;24.880;2022-11-12T06:04:07;7.80;;;4.70;;
5904;SDS011;2978;42.012;24.880;2022-11-12T06:06:34;5.97;;;5.00;;
5904;SDS011;2978;42.012;24.880;2022-11-12T06:08:59;8.17;;;5.87;;
5904;SDS011;2978;42.012;24.880;2022-11-12T06:11:25;16.90;;;8.53;;
5904;SDS011;2978;42.012;24.880;2022-11-12T06:13:50;8.63;;;7.60;;
5904;SDS011;2978;42.012;24.880;2022-11-12T06:16:15;10.40;;;6.57;;
5904;SDS011;2978;42.012;24.880;2022-11-12T06:18:41;11.10;;;7.40;;
5904;SDS011;2978;42.012;24.880;2022-11-12T06:21:07;18.17;;;8.87;;
5904;SDS011;2978;42.012;24.880;2022-11-12T06:23:43;25.40;;;13.57;;
5904;SDS011;2978;42.012;24.880;2022-11-12T06:26:09;12.63;;;7.60;;
5904;SDS011;2978;42.012;24.880;2022-11-12T06:28:34;15.80;;;5.33;;
5904;SDS011;2978;42.012;24.880;2022-11-12T06:30:59;5.53;;;4.07;;
5904;SDS011;2978;42.012;24.880;2022-11-12T06:33:25;3.33;;;2.87;;
5904;SDS011;2978;42.012;24.880;2022-11-12T06:35:59;24.73;;;12.00;;
5904;SDS011;2978;42.012;24.880;2022-11-12T06:38:29;25.20;;;13.50;;
5904;SDS011;2978;42.012;24.880;2022-11-12T06:40:59;26.33;;;15.07;;
5904;SDS011;2978;42.012;24.880;2022-11-12T06:43:26;21.40;;;12.70;;
5904;SDS011;2978;42.012;24.880;2022-11-12T06:45:53;20.63;;;9.93;;
5904;SDS011;2978;42.012;24.880;2022-11-12T06:48:18;13.53;;;8.73;;
5904;SDS011;2978;42.012;24.880;2022-11-12T06:50:44;8.10;;;6.80;;
5904;SDS011;2978;42.012;24.880;2022-11-12T06:53:09;9.33;;;6.80;;
5904;SDS011;2978;42.012;24.880;2022-11-12T06:55:35;9.20;;;6.00;;
5904;SDS011;2978;42.012;24.880;2022-11-12T06:58:01;9.17;;;5.60;;
5904;SDS011;2978;42.012;24.880;2022-11-12T07:00:26;11.23;;;6.70;;
5904;SDS011;2978;42.012;24.880;2022-11-12T07:02:52;9.27;;;5.83;;
5904;SDS011;2978;42.012;24.880;2022-11-12T07:05:17;10.30;;;7.10;;
5904;SDS011;2978;42.012;24.880;2022-11-12T07:07:42;10.00;;;5.87;;
5904;SDS011;2978;42.012;24.880;2022-11-12T07:10:08;12.57;;;6.67;;
5904;SDS011;2978;42.012;24.880;2022-11-12T07:12:33;12.30;;;5.50;;
5904;SDS011;2978;42.012;24.880;2022-11-12T07:14:59;7.70;;;5.10;;
5904;SDS011;2978;42.012;24.880;2022-11-12T07:17:24;5.03;;;4.53;;
5904;SDS011;2978;42.012;24.880;2022-11-12T07:19:50;5.13;;;4.33;;
5904;SDS011;2978;42.012;24.880;2022-11-12T07:22:15;10.87;;;4.40;;
5904;SDS011;2978;42.012;24.880;2022-11-12T07:24:41;5.57;;;4.67;;
5904;SDS011;2978;42.012;24.880;2022-11-12T07:27:06;4.57;;;3.47;;
5904;SDS011;2978;42.012;24.880;2022-11-12T07:29:31;3.90;;;3.03;;
5904;SDS011;2978;42.012;24.880;2022-11-12T07:31:57;3.20;;;2.77;;
5904;SDS011;2978;42.012;24.880;2022-11-12T07:34:22;5.80;;;4.23;;
5904;SDS011;2978;42.012;24.880;2022-11-12T07:36:48;6.57;;;3.77;;
5904;SDS011;2978;42.012;24.880;2022-11-12T07:39:15;3.63;;;3.30;;
5904;SDS011;2978;42.012;24.880;2022-11-12T07:41:41;6.80;;;4.10;;
5904;SDS011;2978;42.012;24.880;2022-11-12T07:44:07;6.17;;;4.60;;
5904;SDS011;2978;42.012;24.880;2022-11-12T07:46:32;6.53;;;5.20;;
5904;SDS011;2978;42.012;24.880;2022-11-12T07:48:57;7.00;;;5.03;;
5904;SDS011;2978;42.012;24.880;2022-11-12T07:51:24;7.50;;;5.13;;
5904;SDS011;2978;42.012;24.880;2022-11-12T07:53:52;5.23;;;4.57;;
5904;SDS011;2978;42.012;24.880;2022-11-12T07:56:20;5.80;;;4.70;;
5904;SDS011;2978;42.012;24.880;2022-11-12T07:58:47;6.03;;;4.33;;
5904;SDS011;2978;42.012;24.880;2022-11-12T08:03:42;14.17;;;8.33;;
5904;SDS011;2978;42.012;24.880;2022-11-12T08:06:08;20.00;;;12.73;;
5904;SDS011;2978;42.012;24.880;2022-11-12T08:08:33;25.70;;;14.73;;
5904;SDS011;2978;42.012;24.880;2022-11-12T08:10:59;8.70;;;5.27;;
5904;SDS011;2978;42.012;24.880;2022-11-12T08:13:24;7.70;;;3.93;;
5904;SDS011;2978;42.012;24.880;2022-11-12T08:15:50;3.23;;;2.50;;
5904;SDS011;2978;42.012;24.880;2022-11-12T08:18:16;5.40;;;4.90;;
5904;SDS011;2978;42.012;24.880;2022-11-12T08:20:42;5.23;;;2.80;;
5904;SDS011;2978;42.012;24.880;2022-11-12T08:23:08;4.63;;;3.10;;
5904;SDS011;2978;42.012;24.880;2022-11-12T08:25:34;6.17;;;4.03;;
5904;SDS011;2978;42.012;24.880;2022-11-12T08:28:00;4.53;;;3.10;;
5904;SDS011;2978;42.012;24.880;2022-11-12T08:30:26;6.10;;;3.80;;
5904;SDS011;2978;42.012;24.880;2022-11-12T08:32:59;5.83;;;4.30;;
5904;SDS011;2978;42.012;24.880;2022-11-12T08:35:27;3.83;;;3.03;;
5904;SDS011;2978;42.012;24.880;2022-11-12T08:37:57;3.20;;;2.20;;
5904;SDS011;2978;42.012;24.880;2022-11-12T08:40:27;4.77;;;1.87;;
5904;SDS011;2978;42.012;24.880;2022-11-12T08:43:01;4.07;;;2.60;;
5904;SDS011;2978;42.012;24.880;2022-11-12T08:45:30;4.13;;;2.43;;
5904;SDS011;2978;42.012;24.880;2022-11-12T08:47:57;2.10;;;1.90;;
5904;SDS011;2978;42.012;24.880;2022-11-12T08:50:27;3.30;;;2.10;;
5904;SDS011;2978;42.012;24.880;2022-11-12T08:52:57;4.93;;;2.10;;
5904;SDS011;2978;42.012;24.880;2022-11-12T08:55:24;2.50;;;1.80;;
5904;SDS011;2978;42.012;24.880;2022-11-12T08:57:49;2.13;;;1.97;;
5904;SDS011;2978;42.012;24.880;2022-11-12T09:00:15;5.63;;;2.50;;
5904;SDS011;2978;42.012;24.880;2022-11-12T09:02:41;6.60;;;2.93;;
5904;SDS011;2978;42.012;24.880;2022-11-12T09:05:06;3.90;;;2.90;;
5904;SDS011;2978;42.012;24.880;2022-11-12T09:07:32;6.50;;;4.60;;
5904;SDS011;2978;42.012;24.880;2022-11-12T09:09:58;6.77;;;4.80;;
5904;SDS011;2978;42.012;24.880;2022-11-12T09:12:23;7.43;;;4.07;;
5904;SDS011;2978;42.012;24.880;2022-11-12T09:14:49;6.50;;;4.40;;
5904;SDS011;2978;42.012;24.880;2022-11-12T09:17:14;1.50;;;1.40;;
5904;SDS011;2978;42.012;24.880;2022-11-12T09:19:40;2.60;;;2.17;;
5904;SDS011;2978;42.012;24.880;2022-11-12T09:22:05;2.00;;;1.80;;
5904;SDS011;2978;42.012;24.880;2022-11-12T09:24:31;1.70;;;1.50;;
5904;SDS011;2978;42.012;24.880;2022-11-12T09:26:56;2.23;;;1.77;;
5904;SDS011;2978;42.012;24.880;2022-11-12T09:29:22;3.27;;;2.20;;
5904;SDS011;2978;42.012;24.880;2022-11-12T09:31:47;7.03;;;3.10;;
5904;SDS011;2978;42.012;24.880;2022-11-12T09:34:13;2.73;;;2.20;;
5904;SDS011;2978;42.012;24.880;2022-11-12T09:36:38;3.67;;;2.30;;
5904;SDS011;2978;42.012;24.880;2022-11-12T09:39:04;2.13;;;1.90;;
5904;SDS011;2978;42.012;24.880;2022-11-12T09:41:35;1.83;;;1.60;;
5904;SDS011;2978;42.012;24.880;2022-11-12T09:44:03;2.80;;;1.80;;
5904;SDS011;2978;42.012;24.880;2022-11-12T09:49:13;2.00;;;1.67;;
5904;SDS011;2978;42.012;24.880;2022-11-12T09:51:53;2.30;;;2.10;;
5904;SDS011;2978;42.012;24.880;2022-11-12T09:54:24;2.80;;;2.17;;
5904;SDS011;2978;42.012;24.880;2022-11-12T09:56:55;3.10;;;2.30;;
5904;SDS011;2978;42.012;24.880;2022-11-12T09:59:21;3.67;;;2.70;;
5904;SDS011;2978;42.012;24.880;2022-11-12T10:01:51;4.90;;;1.90;;
5904;SDS011;2978;42.012;24.880;2022-11-12T10:07:35;2.93;;;1.97;;
5904;SDS011;2978;42.012;24.880;2022-11-12T10:25:19;2.70;;;2.40;;
5904;SDS011;2978;42.012;24.880;2022-11-12T10:27:53;3.50;;;2.30;;
5904;SDS011;2978;42.012;24.880;2022-11-12T10:30:21;7.57;;;2.47;;
5904;SDS011;2978;42.012;24.880;2022-11-12T10:32:51;2.60;;;2.13;;
5904;SDS011;2978;42.012;24.880;2022-11-12T10:35:18;4.70;;;3.10;;
5904;SDS011;2978;42.012;24.880;2022-11-12T10:38:01;6.40;;;2.73;;
5904;SDS011;2978;42.012;24.880;2022-11-12T10:43:20;5.40;;;2.83;;
5904;SDS011;2978;42.012;24.880;2022-11-12T10:45:47;2.90;;;2.20;;
5904;SDS011;2978;42.012;24.880;2022-11-12T10:50:52;3.40;;;2.80;;
5904;SDS011;2978;42.012;24.880;2022-11-12T10:53:28;5.90;;;3.50;;
5904;SDS011;2978;42.012;24.880;2022-11-12T10:56:00;4.80;;;2.63;;
5904;SDS011;2978;42.012;24.880;2022-11-12T10:58:28;4.10;;;1.80;;
5904;SDS011;2978;42.012;24.880;2022-11-12T11:03:22;4.47;;;2.50;;
5904;SDS011;2978;42.012;24.880;2022-11-12T11:05:51;8.17;;;4.30;;
5904;SDS011;2978;42.012;24.880;2022-11-12T11:08:34;6.00;;;4.30;;
5904;SDS011;2978;42.012;24.880;2022-11-12T11:13:40;8.90;;;6.20;;
5904;SDS011;2978;42.012;24.880;2022-11-12T11:16:07;9.07;;;6.80;;
5904;SDS011;2978;42.012;24.880;2022-11-12T11:18:37;5.13;;;4.30;;
5904;SDS011;2978;42.012;24.880;2022-11-12T11:21:20;5.20;;;3.80;;
5904;SDS011;2978;42.012;24.880;2022-11-12T11:23:56;4.50;;;3.27;;
5904;SDS011;2978;42.012;24.880;2022-11-12T11:32:01;7.27;;;4.57;;
5904;SDS011;2978;42.012;24.880;2022-11-12T11:37:35;11.00;;;7.00;;
5904;SDS011;2978;42.012;24.880;2022-11-12T11:43:01;10.47;;;6.10;;
5904;SDS011;2978;42.012;24.880;2022-11-12T11:48:21;22.97;;;11.40;;
5904;SDS011;2978;42.012;24.880;2022-11-12T11:56:01;8.30;;;6.60;;
5904;SDS011;2978;42.012;24.880;2022-11-12T12:07:14;9.47;;;6.87;;
5904;SDS011;2978;42.012;24.880;2022-11-12T12:10:20;9.27;;;6.90;;
5904;SDS011;2978;42.012;24.880;2022-11-12T12:20:59;6.03;;;4.73;;
5904;SDS011;2978;42.012;24.880;2022-11-12T12:23:32;5.57;;;4.67;;
5904;SDS011;2978;42.012;24.880;2022-11-12T12:26:05;5.60;;;4.43;;
5904;SDS011;2978;42.012;24.880;2022-11-12T12:28:53;5.60;;;4.57;;
5904;SDS011;2978;42.012;24.880;2022-11-12T12:31:28;3.20;;;2.90;;
5904;SDS011;2978;42.012;24.880;2022-11-12T12:33:58;7.83;;;4.57;;
5904;SDS011;2978;42.012;24.880;2022-11-12T12:36:38;6.07;;;4.93;;
5904;SDS011;2978;42.012;24.880;2022-11-12T12:42:11;4.77;;;4.07;;
5904;SDS011;2978;42.012;24.880;2022-11-12T12:44:59;3.67;;;3.37;;
5904;SDS011;2978;42.012;24.880;2022-11-12T12:47:41;3.70;;;3.40;;
5904;SDS011;2978;42.012;24.880;2022-11-12T12:50:12;4.17;;;3.80;;
5904;SDS011;2978;42.012;24.880;2022-11-12T12:55:49;4.67;;;4.03;;
5904;SDS011;2978;42.012;24.880;2022-11-12T12:58:26;4.33;;;3.60;;
5904;SDS011;2978;42.012;24.880;2022-11-12T13:01:00;7.00;;;5.03;;
5904;SDS011;2978;42.012;24.880;2022-11-12T13:03:48;4.57;;;3.40;;
5904;SDS011;2978;42.012;24.880;2022-11-12T13:06:23;4.73;;;4.10;;
5904;SDS011;2978;42.012;24.880;2022-11-12T13:08:56;6.17;;;5.20;;
5904;SDS011;2978;42.012;24.880;2022-11-12T13:19:28;6.37;;;4.43;;
5904;SDS011;2978;42.012;24.880;2022-11-12T13:30:06;4.80;;;4.30;;
5904;SDS011;2978;42.012;24.880;2022-11-12T13:32:36;3.93;;;3.50;;
5904;SDS011;2978;42.012;24.880;2022-11-12T13:45:49;4.03;;;3.53;;
5904;SDS011;2978;42.012;24.880;2022-11-12T13:50:57;3.57;;;3.10;;
5904;SDS011;2978;42.012;24.880;2022-11-12T13:53:27;5.70;;;3.97;;
5904;SDS011;2978;42.012;24.880;2022-11-12T13:55:57;7.87;;;5.27;;
5904;SDS011;2978;42.012;24.880;2022-11-12T14:00:59;15.97;;;12.37;;
5904;SDS011;2978;42.012;24.880;2022-11-12T14:03:44;4.10;;;3.50;;
5904;SDS011;2978;42.012;24.880;2022-11-12T14:06:34;6.90;;;5.00;;
5904;SDS011;2978;42.012;24.880;2022-11-12T14:14:26;4.00;;;2.70;;
5904;SDS011;2978;42.012;24.880;2022-11-12T14:22:51;5.70;;;4.13;;
5904;SDS011;2978;42.012;24.880;2022-11-12T14:25:22;6.40;;;5.00;;
5904;SDS011;2978;42.012;24.880;2022-11-12T14:27:52;5.03;;;3.40;;
5904;SDS011;2978;42.012;24.880;2022-11-12T14:30:27;7.30;;;4.40;;
5904;SDS011;2978;42.012;24.880;2022-11-12T14:33:00;7.17;;;4.67;;
5904;SDS011;2978;42.012;24.880;2022-11-12T14:35:36;3.37;;;2.10;;
5904;SDS011;2978;42.012;24.880;2022-11-12T14:38:04;2.23;;;1.83;;
5904;SDS011;2978;42.012;24.880;2022-11-12T14:40:43;1.80;;;1.50;;
5904;SDS011;2978;42.012;24.880;2022-11-12T14:43:19;7.17;;;3.03;;
5904;SDS011;2978;42.012;24.880;2022-11-12T14:45:46;2.83;;;2.23;;
5904;SDS011;2978;42.012;24.880;2022-11-12T14:48:13;3.17;;;1.87;;
5904;SDS011;2978;42.012;24.880;2022-11-12T14:50:39;2.80;;;1.80;;
5904;SDS011;2978;42.012;24.880;2022-11-12T14:53:26;3.13;;;2.30;;
5904;SDS011;2978;42.012;24.880;2022-11-12T14:55:56;8.00;;;4.33;;
5904;SDS011;2978;42.012;24.880;2022-11-12T14:58:25;7.43;;;3.80;;
5904;SDS011;2978;42.012;24.880;2022-11-12T15:00:52;7.80;;;4.80;;
5904;SDS011;2978;42.012;24.880;2022-11-12T15:03:20;6.00;;;4.50;;
5904;SDS011;2978;42.012;24.880;2022-11-12T15:05:52;7.33;;;5.77;;
5904;SDS011;2978;42.012;24.880;2022-11-12T15:08:41;5.93;;;4.20;;
5904;SDS011;2978;42.012;24.880;2022-11-12T15:11:13;4.17;;;3.20;;
5904;SDS011;2978;42.012;24.880;2022-11-12T15:13:42;6.23;;;3.60;;
5904;SDS011;2978;42.012;24.880;2022-11-12T15:16:09;5.00;;;3.03;;
5904;SDS011;2978;42.012;24.880;2022-11-12T15:18:41;3.43;;;3.13;;
5904;SDS011;2978;42.012;24.880;2022-11-12T15:24:18;5.73;;;3.10;;
5904;SDS011;2978;42.012;24.880;2022-11-12T15:26:36;7.67;;;4.93;;
5904;SDS011;2978;42.012;24.880;2022-11-12T15:31:49;11.60;;;4.67;;
5904;SDS011;2978;42.012;24.880;2022-11-12T15:37:18;7.87;;;5.73;;
5904;SDS011;2978;42.012;24.880;2022-11-12T15:39:48;6.80;;;5.30;;
5904;SDS011;2978;42.012;24.880;2022-11-12T15:45:02;5.70;;;4.90;;
5904;SDS011;2978;42.012;24.880;2022-11-12T15:47:33;8.23;;;6.20;;
5904;SDS011;2978;42.012;24.880;2022-11-12T15:49:59;10.47;;;7.23;;
5904;SDS011;2978;42.012;24.880;2022-11-12T15:52:24;6.30;;;3.57;;
5904;SDS011;2978;42.012;24.880;2022-11-12T15:58:17;12.40;;;7.33;;
5904;SDS011;2978;42.012;24.880;2022-11-12T16:00:51;7.70;;;5.37;;
5904;SDS011;2978;42.012;24.880;2022-11-12T16:03:17;7.10;;;4.20;;
5904;SDS011;2978;42.012;24.880;2022-11-12T16:05:44;6.63;;;4.60;;
5904;SDS011;2978;42.012;24.880;2022-11-12T16:08:10;7.90;;;5.10;;
5904;SDS011;2978;42.012;24.880;2022-11-12T16:10:37;9.93;;;6.43;;
5904;SDS011;2978;42.012;24.880;2022-11-12T16:13:04;7.73;;;5.70;;
5904;SDS011;2978;42.012;24.880;2022-11-12T16:15:31;9.70;;;6.97;;
5904;SDS011;2978;42.012;24.880;2022-11-12T16:17:56;6.87;;;5.00;;
5904;SDS011;2978;42.012;24.880;2022-11-12T16:22:51;6.20;;;4.83;;
5904;SDS011;2978;42.012;24.880;2022-11-12T16:25:17;14.10;;;5.93;;
5904;SDS011;2978;42.012;24.880;2022-11-12T16:27:44;13.17;;;6.13;;
5904;SDS011;2978;42.012;24.880;2022-11-12T16:30:18;12.17;;;5.60;;
5904;SDS011;2978;42.012;24.880;2022-11-12T16:32:48;4.80;;;3.33;;
5904;SDS011;2978;42.012;24.880;2022-11-12T16:35:14;9.00;;;4.30;;
5904;SDS011;2978;42.012;24.880;2022-11-12T16:37:43;14.23;;;3.50;;
5904;SDS011;2978;42.012;24.880;2022-11-12T16:40:14;7.30;;;3.60;;
5904;SDS011;2978;42.012;24.880;2022-11-12T16:42:42;10.03;;;4.30;;
5904;SDS011;2978;42.012;24.880;2022-11-12T16:45:12;10.90;;;4.27;;
5904;SDS011;2978;42.012;24.880;2022-11-12T16:47:46;14.50;;;4.90;;
5904;SDS011;2978;42.012;24.880;2022-11-12T16:50:14;28.03;;;6.63;;
5904;SDS011;2978;42.012;24.880;2022-11-12T16:52:41;21.73;;;6.13;;
5904;SDS011;2978;42.012;24.880;2022-11-12T16:55:07;31.87;;;6.80;;
5904;SDS011;2978;42.012;24.880;2022-11-12T16:57:33;14.93;;;7.20;;
5904;SDS011;2978;42.012;24.880;2022-11-12T16:59:59;12.27;;;4.77;;
5904;SDS011;2978;42.012;24.880;2022-11-12T17:02:25;15.67;;;5.30;;
5904;SDS011;2978;42.012;24.880;2022-11-12T17:04:50;7.57;;;4.63;;
5904;SDS011;2978;42.012;24.880;2022-11-12T17:07:16;6.80;;;4.73;;
5904;SDS011;2978;42.012;24.880;2022-11-12T17:09:41;4.87;;;3.87;;
5904;SDS011;2978;42.012;24.880;2022-11-12T17:12:07;6.60;;;4.50;;
5904;SDS011;2978;42.012;24.880;2022-11-12T17:14:33;3.90;;;3.43;;
5904;SDS011;2978;42.012;24.880;2022-11-12T17:16:59;5.50;;;4.00;;
5904;SDS011;2978;42.012;24.880;2022-11-12T17:19:24;6.53;;;3.57;;
5904;SDS011;2978;42.012;24.880;2022-11-12T17:21:50;5.07;;;3.40;;
5904;SDS011;2978;42.012;24.880;2022-11-12T17:24:15;8.17;;;4.43;;
5904;SDS011;2978;42.012;24.880;2022-11-12T17:26:41;6.47;;;3.77;;
5904;SDS011;2978;42.012;24.880;2022-11-12T17:29:07;3.97;;;3.50;;